sensor_id;sensor_type;location;lat;lon;timestamp;pressure;altitude;pressure_sealevel;temperature;humidity
39363;BME280;25088;43.238;23.110;2023-02-28T00:00:10;97128.28;;;6.24;100.00
39363;BME280;25088;43.238;23.110;2023-02-28T00:02:37;97125.19;;;6.13;100.00
39363;BME280;25088;43.238;23.110;2023-02-28T00:05:04;97134.94;;;6.21;100.00
39363;BME280;25088;43.238;23.110;2023-02-28T00:07:31;97146.84;;;6.27;100.00
39363;BME280;25088;43.238;23.110;2023-02-28T00:09:57;97126.25;;;5.99;100.00
39363;BME280;25088;43.238;23.110;2023-02-28T00:12:23;97143.53;;;6.05;100.00
39363;BME280;25088;43.238;23.110;2023-02-28T00:14:49;97156.88;;;6.13;100.00
39363;BME280;25088;43.238;23.110;2023-02-28T00:17:14;97147.09;;;6.12;100.00
39363;BME280;25088;43.238;23.110;2023-02-28T00:19:43;97161.28;;;6.07;100.00
39363;BME280;25088;43.238;23.110;2023-02-28T00:22:09;97158.34;;;6.09;100.00
39363;BME280;25088;43.238;23.110;2023-02-28T00:24:35;97162.50;;;6.11;100.00
39363;BME280;25088;43.238;23.110;2023-02-28T00:27:00;97142.09;;;6.02;100.00
39363;BME280;25088;43.238;23.110;2023-02-28T00:29:26;97164.56;;;6.22;100.00
39363;BME280;25088;43.238;23.110;2023-02-28T00:31:51;97172.47;;;6.24;100.00
39363;BME280;25088;43.238;23.110;2023-02-28T00:34:17;97174.16;;;6.25;100.00
39363;BME280;25088;43.238;23.110;2023-02-28T00:36:42;97171.47;;;6.18;100.00
39363;BME280;25088;43.238;23.110;2023-02-28T00:39:11;97170.00;;;6.16;100.00
39363;BME280;25088;43.238;23.110;2023-02-28T00:41:36;97171.47;;;6.18;100.00
39363;BME280;25088;43.238;23.110;2023-02-28T00:44:02;97176.66;;;6.20;100.00
39363;BME280;25088;43.238;23.110;2023-02-28T00:46:27;97178.34;;;6.14;100.00
39363;BME280;25088;43.238;23.110;2023-02-28T00:48:53;97178.75;;;6.11;100.00
39363;BME280;25088;43.238;23.110;2023-02-28T00:51:18;97180.44;;;6.12;100.00
39363;BME280;25088;43.238;23.110;2023-02-28T00:53:44;97179.19;;;6.08;100.00
39363;BME280;25088;43.238;23.110;2023-02-28T00:56:09;97186.25;;;6.16;100.00
39363;BME280;25088;43.238;23.110;2023-02-28T00:58:35;97187.94;;;6.17;100.00
39363;BME280;25088;43.238;23.110;2023-02-28T01:01:01;97176.69;;;6.13;100.00
39363;BME280;25088;43.238;23.110;2023-02-28T01:03:27;97182.75;;;6.09;100.00
39363;BME280;25088;43.238;23.110;2023-02-28T01:05:52;97186.69;;;6.13;100.00
39363;BME280;25088;43.238;23.110;2023-02-28T01:08:18;97187.75;;;6.12;100.00
39363;BME280;25088;43.238;23.110;2023-02-28T01:10:44;97190.44;;;6.18;100.00
39363;BME280;25088;43.238;23.110;2023-02-28T01:13:09;97186.91;;;6.18;100.00
39363;BME280;25088;43.238;23.110;2023-02-28T01:15:35;97173.97;;;6.13;100.00
39363;BME280;25088;43.238;23.110;2023-02-28T01:18:01;97180.44;;;6.12;100.00
39363;BME280;25088;43.238;23.110;2023-02-28T01:20:26;97186.25;;;6.16;100.00
39363;BME280;25088;43.238;23.110;2023-02-28T01:22:52;97180.44;;;6.12;100.00
39363;BME280;25088;43.238;23.110;2023-02-28T01:25:17;97179.59;;;6.05;100.00
39363;BME280;25088;43.238;23.110;2023-02-28T01:27:43;97179.63;;;6.12;100.00
39363;BME280;25088;43.238;23.110;2023-02-28T01:30:09;97178.34;;;6.14;100.00
39363;BME280;25088;43.238;23.110;2023-02-28T01:32:35;97177.28;;;6.22;100.00
39363;BME280;25088;43.238;23.110;2023-02-28T01:35:01;97178.31;;;6.21;100.00
39363;BME280;25088;43.238;23.110;2023-02-28T01:37:27;97189.38;;;6.19;100.00
39363;BME280;25088;43.238;23.110;2023-02-28T01:39:53;97177.91;;;6.24;100.00
39363;BME280;25088;43.238;23.110;2023-02-28T01:42:18;97168.53;;;6.20;100.00
39363;BME280;25088;43.238;23.110;2023-02-28T01:47:48;97178.31;;;6.21;100.00
39363;BME280;25088;43.238;23.110;2023-02-28T01:50:19;97146.25;;;6.05;100.00
39363;BME280;25088;43.238;23.110;2023-02-28T01:52:47;97177.50;;;6.20;100.00
39363;BME280;25088;43.238;23.110;2023-02-28T01:55:15;97169.97;;;6.29;100.00
39363;BME280;25088;43.238;23.110;2023-02-28T01:57:46;97151.00;;;6.16;100.00
39363;BME280;25088;43.238;23.110;2023-02-28T02:00:15;97160.81;;;6.24;100.00
39363;BME280;25088;43.238;23.110;2023-02-28T02:02:45;97169.78;;;6.24;100.00
39363;BME280;25088;43.238;23.110;2023-02-28T02:05:30;97176.66;;;6.20;100.00
39363;BME280;25088;43.238;23.110;2023-02-28T02:08:20;97181.28;;;6.13;100.00
39363;BME280;25088;43.238;23.110;2023-02-28T02:10:57;97176.47;;;6.15;100.00
39363;BME280;25088;43.238;23.110;2023-02-28T02:22:12;97175.66;;;5.88;100.00
39363;BME280;25088;43.238;23.110;2023-02-28T02:30:02;97177.72;;;5.79;100.00
39363;BME280;25088;43.238;23.110;2023-02-28T02:41:09;97193.56;;;5.76;100.00
39363;BME280;25088;43.238;23.110;2023-02-28T02:43:46;97189.59;;;5.71;100.00
39363;BME280;25088;43.238;23.110;2023-02-28T02:46:19;97189.41;;;5.73;100.00
39363;BME280;25088;43.238;23.110;2023-02-28T02:48:46;97190.44;;;5.79;100.00
39363;BME280;25088;43.238;23.110;2023-02-28T02:51:17;97174.63;;;5.62;100.00
39363;BME280;25088;43.238;23.110;2023-02-28T02:53:57;97192.34;;;5.78;100.00
39363;BME280;25088;43.238;23.110;2023-02-28T02:56:28;97187.97;;;5.77;100.00
39363;BME280;25088;43.238;23.110;2023-02-28T02:59:05;97168.38;;;5.55;100.00
39363;BME280;25088;43.238;23.110;2023-02-28T03:01:34;97196.72;;;5.73;100.00
39363;BME280;25088;43.238;23.110;2023-02-28T03:04:06;97179.19;;;5.62;100.00
39363;BME280;25088;43.238;23.110;2023-02-28T03:06:32;97195.47;;;5.68;100.00
39363;BME280;25088;43.238;23.110;2023-02-28T03:08:59;97190.03;;;5.68;100.00
39363;BME280;25088;43.238;23.110;2023-02-28T03:11:25;97191.91;;;5.68;100.00
39363;BME280;25088;43.238;23.110;2023-02-28T03:27:31;97208.78;;;5.63;100.00
39363;BME280;25088;43.238;23.110;2023-02-28T03:30:24;97211.50;;;5.63;100.00
39363;BME280;25088;43.238;23.110;2023-02-28T03:33:03;97209.00;;;5.68;100.00
39363;BME280;25088;43.238;23.110;2023-02-28T03:36:01;97215.03;;;5.70;100.00
39363;BME280;25088;43.238;23.110;2023-02-28T03:38:33;97222.53;;;5.68;100.00
39363;BME280;25088;43.238;23.110;2023-02-28T03:41:27;97205.44;;;5.61;100.00
39363;BME280;25088;43.238;23.110;2023-02-28T03:43:58;97229.63;;;5.69;100.00
39363;BME280;25088;43.238;23.110;2023-02-28T03:46:26;97219.19;;;5.60;100.00
39363;BME280;25088;43.238;23.110;2023-02-28T03:49:16;97237.53;;;5.71;100.00
39363;BME280;25088;43.238;23.110;2023-02-28T03:51:45;97243.16;;;5.69;100.00
39363;BME280;25088;43.238;23.110;2023-02-28T03:54:19;97236.72;;;5.70;100.00
39363;BME280;25088;43.238;23.110;2023-02-28T03:56:51;97241.50;;;5.75;100.00
39363;BME280;25088;43.238;23.110;2023-02-28T03:59:27;97246.31;;;5.73;100.00
39363;BME280;25088;43.238;23.110;2023-02-28T04:01:54;97252.56;;;5.67;100.00
39363;BME280;25088;43.238;23.110;2023-02-28T04:04:20;97250.88;;;5.66;100.00
39363;BME280;25088;43.238;23.110;2023-02-28T04:06:49;97240.88;;;5.53;100.00
39363;BME280;25088;43.238;23.110;2023-02-28T04:09:15;97230.88;;;5.60;100.00
39363;BME280;25088;43.238;23.110;2023-02-28T04:11:48;97248.59;;;5.76;100.00
39363;BME280;25088;43.238;23.110;2023-02-28T04:14:16;97246.31;;;5.73;100.00
39363;BME280;25088;43.238;23.110;2023-02-28T04:16:42;97241.28;;;5.70;100.00
39363;BME280;25088;43.238;23.110;2023-02-28T04:19:09;97247.53;;;5.70;100.00
39363;BME280;25088;43.238;23.110;2023-02-28T04:21:37;97257.97;;;5.74;100.00
39363;BME280;25088;43.238;23.110;2023-02-28T04:24:08;97239.00;;;5.60;100.00
39363;BME280;25088;43.238;23.110;2023-02-28T04:26:39;97243.78;;;5.71;100.00
39363;BME280;25088;43.238;23.110;2023-02-28T04:29:05;97247.53;;;5.70;100.00
39363;BME280;25088;43.238;23.110;2023-02-28T04:31:32;97245.25;;;5.74;100.00
39363;BME280;25088;43.238;23.110;2023-02-28T04:33:58;97241.50;;;5.68;100.00
39363;BME280;25088;43.238;23.110;2023-02-28T04:36:24;97257.16;;;5.73;100.00
39363;BME280;25088;43.238;23.110;2023-02-28T04:38:50;97256.91;;;5.81;100.00
39363;BME280;25088;43.238;23.110;2023-02-28T04:41:16;97246.69;;;5.77;100.00
39363;BME280;25088;43.238;23.110;2023-02-28T04:43:42;97246.69;;;5.77;100.00
39363;BME280;25088;43.238;23.110;2023-02-28T04:46:07;97245.47;;;5.73;100.00
39363;BME280;25088;43.238;23.110;2023-02-28T04:48:35;97254.00;;;5.76;100.00
39363;BME280;25088;43.238;23.110;2023-02-28T04:51:02;97236.31;;;5.67;100.00
39363;BME280;25088;43.238;23.110;2023-02-28T04:53:29;97260.47;;;5.75;100.00
39363;BME280;25088;43.238;23.110;2023-02-28T04:55:55;97238.56;;;5.57;100.00
39363;BME280;25088;43.238;23.110;2023-02-28T04:58:21;97264.84;;;5.69;100.00
39363;BME280;25088;43.238;23.110;2023-02-28T05:00:51;97260.44;;;5.62;100.00
39363;BME280;25088;43.238;23.110;2023-02-28T05:03:17;97241.06;;;5.38;100.00
39363;BME280;25088;43.238;23.110;2023-02-28T05:05:42;97263.78;;;5.51;100.00
39363;BME280;25088;43.238;23.110;2023-02-28T05:08:08;97276.03;;;5.47;100.00
39363;BME280;25088;43.238;23.110;2023-02-28T05:10:34;97274.81;;;5.42;100.00
39363;BME280;25088;43.238;23.110;2023-02-28T05:13:00;97259.19;;;5.38;100.00
39363;BME280;25088;43.238;23.110;2023-02-28T05:15:25;97268.31;;;5.37;100.00
39363;BME280;25088;43.238;23.110;2023-02-28T05:17:51;97271.69;;;5.45;100.00
39363;BME280;25088;43.238;23.110;2023-02-28T05:20:16;97279.81;;;5.45;100.00
39363;BME280;25088;43.238;23.110;2023-02-28T05:22:43;97272.28;;;5.41;100.00
39363;BME280;25088;43.238;23.110;2023-02-28T05:25:13;97273.56;;;5.45;100.00
39363;BME280;25088;43.238;23.110;2023-02-28T05:27:41;97282.94;;;5.42;100.00
39363;BME280;25088;43.238;23.110;2023-02-28T05:30:07;97288.97;;;5.44;100.00
39363;BME280;25088;43.238;23.110;2023-02-28T05:32:36;97271.88;;;5.44;100.00
39363;BME280;25088;43.238;23.110;2023-02-28T05:35:02;97288.97;;;5.51;100.00
39363;BME280;25088;43.238;23.110;2023-02-28T05:37:27;97287.75;;;5.54;100.00
39363;BME280;25088;43.238;23.110;2023-02-28T05:39:53;97295.00;;;5.47;100.00
39363;BME280;25088;43.238;23.110;2023-02-28T05:42:18;97284.78;;;5.35;100.00
39363;BME280;25088;43.238;23.110;2023-02-28T05:44:44;97297.03;;;5.31;100.00
39363;BME280;25088;43.238;23.110;2023-02-28T05:47:09;97303.06;;;5.20;100.00
39363;BME280;25088;43.238;23.110;2023-02-28T05:49:34;97304.53;;;5.23;100.00
39363;BME280;25088;43.238;23.110;2023-02-28T05:52:00;97305.00;;;5.33;100.00
39363;BME280;25088;43.238;23.110;2023-02-28T05:54:25;97308.75;;;5.38;100.00
39363;BME280;25088;43.238;23.110;2023-02-28T05:56:51;97295.22;;;5.45;100.00
39363;BME280;25088;43.238;23.110;2023-02-28T05:59:16;97301.50;;;5.52;100.00
39363;BME280;25088;43.238;23.110;2023-02-28T06:01:44;97309.41;;;5.60;100.00
39363;BME280;25088;43.238;23.110;2023-02-28T06:04:14;97316.50;;;5.55;100.00
39363;BME280;25088;43.238;23.110;2023-02-28T06:06:43;97317.31;;;5.62;100.00
39363;BME280;25088;43.238;23.110;2023-02-28T06:09:10;97313.22;;;5.73;100.00
39363;BME280;25088;43.238;23.110;2023-02-28T06:11:36;97314.03;;;5.73;100.00
39363;BME280;25088;43.238;23.110;2023-02-28T06:14:03;97307.78;;;5.73;100.00
39363;BME280;25088;43.238;23.110;2023-02-28T06:16:30;97316.53;;;5.75;100.00
39363;BME280;25088;43.238;23.110;2023-02-28T06:18:58;97316.53;;;5.75;100.00
39363;BME280;25088;43.238;23.110;2023-02-28T06:21:23;97326.75;;;5.73;100.00
39363;BME280;25088;43.238;23.110;2023-02-28T06:23:49;97326.31;;;5.62;100.00
39363;BME280;25088;43.238;23.110;2023-02-28T06:26:15;97330.91;;;5.68;100.00
39363;BME280;25088;43.238;23.110;2023-02-28T06:28:40;97323.63;;;5.76;100.00
39363;BME280;25088;43.238;23.110;2023-02-28T06:31:08;97330.25;;;5.66;100.00
39363;BME280;25088;43.238;23.110;2023-02-28T06:33:34;97319.38;;;5.47;100.00
39363;BME280;25088;43.238;23.110;2023-02-28T06:35:59;97332.34;;;5.58;100.00
39363;BME280;25088;43.238;23.110;2023-02-28T06:38:25;97341.72;;;5.62;100.00
39363;BME280;25088;43.238;23.110;2023-02-28T06:40:58;97340.09;;;5.67;100.00
39363;BME280;25088;43.238;23.110;2023-02-28T06:43:24;97345.50;;;5.67;100.00
39363;BME280;25088;43.238;23.110;2023-02-28T06:45:54;97334.00;;;5.65;100.00
39363;BME280;25088;43.238;23.110;2023-02-28T06:48:20;97326.94;;;5.64;100.00
39363;BME280;25088;43.238;23.110;2023-02-28T06:50:46;97323.16;;;5.52;100.00
39363;BME280;25088;43.238;23.110;2023-02-28T06:53:12;97325.84;;;5.45;100.00
39363;BME280;25088;43.238;23.110;2023-02-28T06:55:38;97303.34;;;5.38;100.00
39363;BME280;25088;43.238;23.110;2023-02-28T06:58:04;97319.81;;;5.50;100.00
39363;BME280;25088;43.238;23.110;2023-02-28T07:00:41;97339.22;;;5.60;100.00
39363;BME280;25088;43.238;23.110;2023-02-28T07:03:07;97334.84;;;5.66;100.00
39363;BME280;25088;43.238;23.110;2023-02-28T07:05:34;97327.56;;;5.66;100.00
39363;BME280;25088;43.238;23.110;2023-02-28T07:08:01;97327.16;;;5.63;100.00
39363;BME280;25088;43.238;23.110;2023-02-28T07:10:27;97333.63;;;5.68;100.00
39363;BME280;25088;43.238;23.110;2023-02-28T07:12:52;97335.69;;;5.66;100.00
39363;BME280;25088;43.238;23.110;2023-02-28T07:15:17;97331.13;;;5.74;100.00
39363;BME280;25088;43.238;23.110;2023-02-28T07:17:43;97325.94;;;5.79;100.00
39363;BME280;25088;43.238;23.110;2023-02-28T07:20:09;97316.59;;;5.94;100.00
39363;BME280;25088;43.238;23.110;2023-02-28T07:22:35;97295.06;;;5.73;100.00
39363;BME280;25088;43.238;23.110;2023-02-28T07:25:00;97331.19;;;6.00;100.00
39363;BME280;25088;43.238;23.110;2023-02-28T07:27:26;97331.63;;;5.97;100.00
39363;BME280;25088;43.238;23.110;2023-02-28T07:29:51;97325.13;;;5.91;100.00
39363;BME280;25088;43.238;23.110;2023-02-28T07:32:17;97334.34;;;5.97;100.00
39363;BME280;25088;43.238;23.110;2023-02-28T07:34:44;97335.56;;;6.01;100.00
39363;BME280;25088;43.238;23.110;2023-02-28T07:37:09;97314.09;;;5.93;100.00
39363;BME280;25088;43.238;23.110;2023-02-28T07:39:35;97324.94;;;6.06;100.00
39363;BME280;25088;43.238;23.110;2023-02-28T07:42:04;97327.22;;;5.96;100.00
39363;BME280;25088;43.238;23.110;2023-02-28T07:44:29;97331.41;;;5.92;100.00
39363;BME280;25088;43.238;23.110;2023-02-28T07:46:55;97331.41;;;5.92;100.00
39363;BME280;25088;43.238;23.110;2023-02-28T07:49:20;97331.19;;;6.00;100.00
39363;BME280;25088;43.238;23.110;2023-02-28T07:51:46;97336.00;;;5.98;100.00
39363;BME280;25088;43.238;23.110;2023-02-28T07:54:11;97335.56;;;6.01;100.00
39363;BME280;25088;43.238;23.110;2023-02-28T07:56:37;97338.50;;;6.00;100.00
39363;BME280;25088;43.238;23.110;2023-02-28T07:59:02;97340.97;;;5.94;100.00
39363;BME280;25088;43.238;23.110;2023-02-28T08:01:28;97348.28;;;5.94;100.00
39363;BME280;25088;43.238;23.110;2023-02-28T08:03:54;97347.81;;;5.90;100.00
39363;BME280;25088;43.238;23.110;2023-02-28T08:06:22;97350.53;;;5.90;100.00
39363;BME280;25088;43.238;23.110;2023-02-28T08:08:48;97354.06;;;5.84;100.00
39363;BME280;25088;43.238;23.110;2023-02-28T08:11:15;97364.16;;;5.97;100.00
39363;BME280;25088;43.238;23.110;2023-02-28T08:13:41;97363.09;;;5.98;100.00
39363;BME280;25088;43.238;23.110;2023-02-28T08:16:09;97364.34;;;6.02;100.00
39363;BME280;25088;43.238;23.110;2023-02-28T08:18:35;97370.41;;;6.04;100.00
39363;BME280;25088;43.238;23.110;2023-02-28T08:21:07;97364.59;;;6.27;100.00
39363;BME280;25088;43.238;23.110;2023-02-28T08:23:32;97347.25;;;6.35;100.00
39363;BME280;25088;43.238;23.110;2023-02-28T08:25:58;97338.91;;;6.36;100.00
39363;BME280;25088;43.238;23.110;2023-02-28T08:28:24;97346.81;;;6.51;100.00
39363;BME280;25088;43.238;23.110;2023-02-28T08:30:50;97360.16;;;6.66;100.00
39363;BME280;25088;43.238;23.110;2023-02-28T08:33:15;97372.50;;;6.68;100.00
39363;BME280;25088;43.238;23.110;2023-02-28T08:35:41;97374.59;;;6.66;100.00
39363;BME280;25088;43.238;23.110;2023-02-28T08:38:06;97372.72;;;6.67;100.00
39363;BME280;25088;43.238;23.110;2023-02-28T08:40:31;97372.72;;;6.67;100.00
39363;BME280;25088;43.238;23.110;2023-02-28T08:42:57;97373.34;;;6.62;100.00
39363;BME280;25088;43.238;23.110;2023-02-28T08:45:23;97373.09;;;6.70;100.00
39363;BME280;25088;43.238;23.110;2023-02-28T08:47:49;97381.91;;;6.72;100.00
39363;BME280;25088;43.238;23.110;2023-02-28T08:50:17;97359.97;;;6.54;100.00
39363;BME280;25088;43.238;23.110;2023-02-28T08:52:43;97368.94;;;6.68;100.00
39363;BME280;25088;43.238;23.110;2023-02-28T08:55:09;97378.97;;;6.74;100.00
39363;BME280;25088;43.238;23.110;2023-02-28T08:57:35;97381.25;;;6.77;100.00
39363;BME280;25088;43.238;23.110;2023-02-28T09:00:02;97382.28;;;6.76;100.00
39363;BME280;25088;43.238;23.110;2023-02-28T09:02:30;97374.75;;;6.85;100.00
39363;BME280;25088;43.238;23.110;2023-02-28T09:04:57;97375.41;;;6.87;100.00
39363;BME280;25088;43.238;23.110;2023-02-28T09:07:23;97372.88;;;6.92;100.00
39363;BME280;25088;43.238;23.110;2023-02-28T09:09:49;97375.81;;;6.97;100.00
39363;BME280;25088;43.238;23.110;2023-02-28T09:12:22;97369.28;;;7.05;100.00
39363;BME280;25088;43.238;23.110;2023-02-28T09:14:48;97371.16;;;7.11;100.00
39363;BME280;25088;43.238;23.110;2023-02-28T09:17:14;97369.88;;;7.27;100.00
39363;BME280;25088;43.238;23.110;2023-02-28T09:19:40;97369.22;;;7.31;99.69
39363;BME280;25088;43.238;23.110;2023-02-28T09:22:05;97364.59;;;7.38;100.00
39363;BME280;25088;43.238;23.110;2023-02-28T09:24:31;97369.63;;;7.41;99.61
39363;BME280;25088;43.238;23.110;2023-02-28T09:26:56;97339.13;;;7.33;99.32
39363;BME280;25088;43.238;23.110;2023-02-28T09:29:22;97361.84;;;7.45;98.51
39363;BME280;25088;43.238;23.110;2023-02-28T09:31:47;97345.25;;;7.21;99.89
39363;BME280;25088;43.238;23.110;2023-02-28T09:34:13;97372.16;;;7.30;99.65
39363;BME280;25088;43.238;23.110;2023-02-28T09:36:39;97355.13;;;7.03;100.00
39363;BME280;25088;43.238;23.110;2023-02-28T09:39:05;97367.41;;;7.12;100.00
39363;BME280;25088;43.238;23.110;2023-02-28T09:41:42;97350.53;;;6.96;100.00
39363;BME280;25088;43.238;23.110;2023-02-28T09:44:35;97368.88;;;7.08;100.00
39363;BME280;25088;43.238;23.110;2023-02-28T09:47:10;97376.38;;;7.12;100.00
39363;BME280;25088;43.238;23.110;2023-02-28T09:49:43;97363.19;;;7.16;100.00
39363;BME280;25088;43.238;23.110;2023-02-28T09:52:20;97370.94;;;7.19;100.00
39363;BME280;25088;43.238;23.110;2023-02-28T09:54:47;97370.09;;;7.18;100.00
39363;BME280;25088;43.238;23.110;2023-02-28T09:57:35;97370.50;;;7.22;100.00
39363;BME280;25088;43.238;23.110;2023-02-28T10:05:27;97375.75;;;7.17;100.00
39363;BME280;25088;43.238;23.110;2023-02-28T10:08:19;97380.13;;;7.18;100.00
39363;BME280;25088;43.238;23.110;2023-02-28T10:10:57;97372.78;;;7.25;100.00
39363;BME280;25088;43.238;23.110;2023-02-28T10:13:49;97368.81;;;7.21;100.00
39363;BME280;25088;43.238;23.110;2023-02-28T10:18:51;97370.28;;;7.23;100.00
39363;BME280;25088;43.238;23.110;2023-02-28T10:21:25;97364.06;;;7.16;100.00
39363;BME280;25088;43.238;23.110;2023-02-28T10:23:59;97368.03;;;7.14;100.00
39363;BME280;25088;43.238;23.110;2023-02-28T10:26:28;97370.53;;;7.09;100.00
39363;BME280;25088;43.238;23.110;2023-02-28T10:28:55;97376.19;;;7.07;100.00
39363;BME280;25088;43.238;23.110;2023-02-28T10:31:20;97372.44;;;7.08;100.00
39363;BME280;25088;43.238;23.110;2023-02-28T10:33:48;97363.84;;;7.18;100.00
39363;BME280;25088;43.238;23.110;2023-02-28T10:36:16;97365.91;;;7.22;100.00
39363;BME280;25088;43.238;23.110;2023-02-28T10:38:43;97361.91;;;7.32;100.00
39363;BME280;25088;43.238;23.110;2023-02-28T10:41:15;97362.09;;;7.37;100.00
39363;BME280;25088;43.238;23.110;2023-02-28T10:43:42;97362.09;;;7.30;100.00
39363;BME280;25088;43.238;23.110;2023-02-28T10:48:44;97360.03;;;7.25;100.00
39363;BME280;25088;43.238;23.110;2023-02-28T10:51:18;97356.56;;;7.05;100.00
39363;BME280;25088;43.238;23.110;2023-02-28T10:53:52;97356.56;;;7.05;100.00
39363;BME280;25088;43.238;23.110;2023-02-28T10:56:20;97354.22;;;7.15;100.00
39363;BME280;25088;43.238;23.110;2023-02-28T11:01:22;97354.63;;;7.19;100.00
39363;BME280;25088;43.238;23.110;2023-02-28T11:03:48;97360.44;;;7.29;100.00
39363;BME280;25088;43.238;23.110;2023-02-28T11:06:23;97354.59;;;7.32;100.00
39363;BME280;25088;43.238;23.110;2023-02-28T11:08:57;97350.00;;;7.33;100.00
39363;BME280;25088;43.238;23.110;2023-02-28T11:11:26;97356.06;;;7.28;100.00
39363;BME280;25088;43.238;23.110;2023-02-28T11:13:55;97354.84;;;7.17;100.00
39363;BME280;25088;43.238;23.110;2023-02-28T11:16:32;97357.56;;;7.11;100.00
39363;BME280;25088;43.238;23.110;2023-02-28T11:18:58;97366.38;;;6.99;100.00
39363;BME280;25088;43.238;23.110;2023-02-28T11:21:33;97362.44;;;7.02;100.00
39363;BME280;25088;43.238;23.110;2023-02-28T11:24:15;97363.28;;;6.89;100.00
39363;BME280;25088;43.238;23.110;2023-02-28T11:26:47;97351.00;;;6.67;100.00
39363;BME280;25088;43.238;23.110;2023-02-28T11:29:19;97359.75;;;6.76;100.00
39363;BME280;25088;43.238;23.110;2023-02-28T11:32:12;97360.59;;;6.63;100.00
39363;BME280;25088;43.238;23.110;2023-02-28T11:34:40;97295.75;;;6.15;100.00
39363;BME280;25088;43.238;23.110;2023-02-28T11:37:12;97337.25;;;6.42;100.00
39363;BME280;25088;43.238;23.110;2023-02-28T11:39:38;97356.00;;;6.50;100.00
39363;BME280;25088;43.238;23.110;2023-02-28T11:42:19;97365.19;;;6.29;100.00
39363;BME280;25088;43.238;23.110;2023-02-28T11:54:02;97347.47;;;6.40;100.00
39363;BME280;25088;43.238;23.110;2023-02-28T11:56:29;97349.13;;;6.41;100.00
39363;BME280;25088;43.238;23.110;2023-02-28T12:07:18;97341.63;;;6.16;100.00
39363;BME280;25088;43.238;23.110;2023-02-28T12:12:38;97346.00;;;6.31;100.00
39363;BME280;25088;43.238;23.110;2023-02-28T12:28:30;97324.53;;;6.03;100.00
39363;BME280;25088;43.238;23.110;2023-02-28T12:31:08;97351.44;;;6.17;100.00
39363;BME280;25088;43.238;23.110;2023-02-28T12:33:40;97342.88;;;6.20;100.00
39363;BME280;25088;43.238;23.110;2023-02-28T12:36:13;97339.75;;;6.24;100.00
39363;BME280;25088;43.238;23.110;2023-02-28T12:38:56;97340.81;;;6.29;100.00
39363;BME280;25088;43.238;23.110;2023-02-28T12:41:51;97344.78;;;6.27;100.00
39363;BME280;25088;43.238;23.110;2023-02-28T12:44:24;97339.75;;;6.30;100.00
39363;BME280;25088;43.238;23.110;2023-02-28T12:46:55;97337.28;;;6.22;100.00
39363;BME280;25088;43.238;23.110;2023-02-28T12:49:27;97347.69;;;6.12;100.00
39363;BME280;25088;43.238;23.110;2023-02-28T12:51:59;97351.00;;;6.14;100.00
39363;BME280;25088;43.238;23.110;2023-02-28T12:59:51;97336.84;;;6.12;100.00
39363;BME280;25088;43.238;23.110;2023-02-28T13:04:57;97342.69;;;6.29;100.00
39363;BME280;25088;43.238;23.110;2023-02-28T13:10:18;97327.03;;;6.24;100.00
39363;BME280;25088;43.238;23.110;2023-02-28T13:12:51;97311.16;;;6.21;100.00
39363;BME280;25088;43.238;23.110;2023-02-28T13:17:49;97338.91;;;6.30;100.00
39363;BME280;25088;43.238;23.110;2023-02-28T13:20:46;97333.91;;;6.20;100.00
39363;BME280;25088;43.238;23.110;2023-02-28T13:23:03;97342.25;;;6.18;100.00
39363;BME280;25088;43.238;23.110;2023-02-28T13:25:51;97329.94;;;6.03;100.00
39363;BME280;25088;43.238;23.110;2023-02-28T13:31:19;97333.94;;;6.07;100.00
39363;BME280;25088;43.238;23.110;2023-02-28T13:36:29;97329.53;;;6.12;100.00
39363;BME280;25088;43.238;23.110;2023-02-28T13:38:59;97309.28;;;6.02;100.00
39363;BME280;25088;43.238;23.110;2023-02-28T13:44:05;97331.41;;;5.99;100.00
39363;BME280;25088;43.238;23.110;2023-02-28T13:46:34;97331.81;;;5.95;100.00
39363;BME280;25088;43.238;23.110;2023-02-28T14:00:20;97260.66;;;5.60;100.00
39363;BME280;25088;43.238;23.110;2023-02-28T14:05:34;97242.97;;;5.64;100.00
39363;BME280;25088;43.238;23.110;2023-02-28T14:08:20;97310.75;;;6.04;100.00
39363;BME280;25088;43.238;23.110;2023-02-28T14:10:49;97304.09;;;6.00;100.00
39363;BME280;25088;43.238;23.110;2023-02-28T14:13:43;97298.25;;;6.03;100.00
39363;BME280;25088;43.238;23.110;2023-02-28T14:16:14;97298.03;;;6.11;100.00
39363;BME280;25088;43.238;23.110;2023-02-28T14:18:49;97300.31;;;6.01;100.00
39363;BME280;25088;43.238;23.110;2023-02-28T14:21:30;97299.72;;;5.99;100.00
39363;BME280;25088;43.238;23.110;2023-02-28T14:30:01;97303.47;;;6.05;100.00
39363;BME280;25088;43.238;23.110;2023-02-28T14:37:53;97319.94;;;6.03;100.00
39363;BME280;25088;43.238;23.110;2023-02-28T14:40:27;97319.72;;;6.11;100.00
39363;BME280;25088;43.238;23.110;2023-02-28T14:43:02;97312.66;;;6.17;100.00
39363;BME280;25088;43.238;23.110;2023-02-28T14:45:35;97320.59;;;6.12;100.00
39363;BME280;25088;43.238;23.110;2023-02-28T14:48:04;97322.88;;;6.08;100.00
39363;BME280;25088;43.238;23.110;2023-02-28T14:50:35;97322.66;;;6.10;100.00
39363;BME280;25088;43.238;23.110;2023-02-28T14:53:02;97324.31;;;6.04;100.00
39363;BME280;25088;43.238;23.110;2023-02-28T14:55:31;97318.47;;;6.01;100.00
39363;BME280;25088;43.238;23.110;2023-02-28T14:58:02;97318.84;;;5.91;100.00
39363;BME280;25088;43.238;23.110;2023-02-28T15:00:32;97337.41;;;5.87;100.00
39363;BME280;25088;43.238;23.110;2023-02-28T15:02:59;97333.00;;;5.80;100.00
39363;BME280;25088;43.238;23.110;2023-02-28T15:05:31;97333.84;;;5.74;100.00
39363;BME280;25088;43.238;23.110;2023-02-28T15:08:14;97327.16;;;5.69;100.00
39363;BME280;25088;43.238;23.110;2023-02-28T15:11:00;97325.28;;;5.63;100.00
39363;BME280;25088;43.238;23.110;2023-02-28T15:13:40;97316.50;;;5.55;100.00